Time;durP1;ratioP1;P1;durP2;ratioP2;P2;SDS_P1;SDS_P2;PMS_P1;PMS_P2;Temp;Humidity;BMP_temperature;BMP_pressure;BME280_temperature;BME280_humidity;BME280_pressure;Samples;Min_cycle;Max_cycle;Signal;HPM_P1;HPM_P2
2023/02/16 00:00:18;;;;;;;;;73.25;57.75;;;;;10.05;61.44;102233.25;4871697;29;45407;-71
2023/02/16 00:02:43;;;;;;;;;74.50;57.50;;;;;9.88;61.36;102204.03;4863116;29;45336;-71
2023/02/16 00:05:26;;;;;;;;;71.00;54.50;;;;;9.79;61.86;102191.63;4862941;29;45701;-71
2023/02/16 00:07:52;;;;;;;;;67.75;55.25;;;;;9.79;61.66;102194.28;4870972;29;47067;-72
2023/02/16 00:10:18;;;;;;;;;66.50;55.50;;;;;9.97;61.45;102233.31;4894741;29;45936;-72
2023/02/16 00:15:28;;;;;;;;;75.00;58.50;;;;;9.80;62.01;102212.06;4878253;29;45395;-71
2023/02/16 00:17:55;;;;;;;;;69.25;54.25;;;;;9.82;61.51;102214.72;4878537;29;47685;-72
2023/02/16 00:20:21;;;;;;;;;63.25;50.50;;;;;9.83;61.40;102222.72;4867605;29;45327;-72
2023/02/16 00:22:46;;;;;;;;;70.25;56.50;;;;;9.81;61.77;102213.84;4878794;29;45792;-72
2023/02/16 00:25:12;;;;;;;;;70.50;55.00;;;;;9.76;61.55;102212.09;4862652;29;45544;-72
2023/02/16 00:27:37;;;;;;;;;66.75;55.75;;;;;9.82;61.78;102222.72;4862688;29;46918;-72
2023/02/16 00:30:14;;;;;;;;;68.50;54.25;;;;;9.60;61.66;102188.16;4864059;29;45446;-72
2023/02/16 00:32:39;;;;;;;;;68.25;52.00;;;;;9.71;61.75;102211.25;4862674;29;45459;-71
2023/02/16 00:35:15;;;;;;;;;70.00;55.00;;;;;9.67;61.98;102204.13;4867413;29;45530;-71
2023/02/16 00:37:40;;;;;;;;;73.25;56.25;;;;;9.51;61.45;102182.91;4882727;29;45590;-72
2023/02/16 00:40:06;;;;;;;;;70.25;56.00;;;;;9.59;61.49;102197.06;4865068;29;45312;-72
2023/02/16 00:42:33;;;;;;;;;73.50;55.00;;;;;9.70;61.61;102220.13;4878473;29;45329;-72
2023/02/16 00:44:59;;;;;;;;;65.75;53.75;;;;;9.51;61.96;102190.88;4862790;29;45578;-71
2023/02/16 00:47:45;;;;;;;;;65.25;51.25;;;;;9.46;61.69;102182.91;4879934;29;47336;-71
2023/02/16 00:50:15;;;;;;;;;72.00;58.25;;;;;9.67;61.97;102209.47;4875992;29;45389;-72
2023/02/16 00:52:42;;;;;;;;;65.00;53.00;;;;;9.48;61.90;102180.25;4872222;29;45380;-72
2023/02/16 00:55:13;;;;;;;;;66.25;53.00;;;;;9.66;61.80;102213.03;4867194;29;45432;-72
2023/02/16 00:58:25;;;;;;;;;70.50;56.25;;;;;9.19;61.95;102135.09;4879144;29;46815;-72
2023/02/16 01:01:06;;;;;;;;;67.50;53.50;;;;;9.60;61.63;102203.28;4867753;29;45319;-72
2023/02/16 01:03:31;;;;;;;;;68.25;55.25;;;;;9.50;61.75;102191.78;4866973;29;45385;-72
2023/02/16 01:11:25;;;;;;;;;62.50;51.50;;;;;9.48;61.93;102190.03;4866576;29;45951;-72
2023/02/16 01:13:52;;;;;;;;;63.25;52.00;;;;;9.30;62.03;102161.66;4866757;29;45459;-72
2023/02/16 01:16:26;;;;;;;;;71.25;57.75;;;;;9.43;62.07;102188.25;4881193;29;45516;-72
2023/02/16 01:18:52;;;;;;;;;66.25;52.25;;;;;9.29;62.20;102166.13;4866492;29;46119;-71
2023/02/16 01:21:18;;;;;;;;;67.25;52.75;;;;;9.25;62.18;102161.69;4877751;29;45608;-71
2023/02/16 01:23:44;;;;;;;;;69.00;54.25;;;;;9.48;62.26;102198.91;4876591;29;45332;-71
2023/02/16 01:26:13;;;;;;;;;63.25;52.00;;;;;9.40;62.45;102182.94;4885457;29;45331;-72
2023/02/16 01:28:39;;;;;;;;;69.25;54.75;;;;;9.22;62.06;102159.03;4880894;29;47209;-72
2023/02/16 01:31:05;;;;;;;;;72.50;55.00;;;;;9.36;62.20;102178.53;4849688;29;45439;-71
2023/02/16 01:33:31;;;;;;;;;61.25;50.75;;;;;9.28;61.75;102170.53;4865518;29;45407;-71
2023/02/16 01:35:57;;;;;;;;;65.25;52.00;;;;;9.17;62.00;102150.16;4869730;29;45562;-71
2023/02/16 01:38:26;;;;;;;;;66.50;52.00;;;;;9.31;61.82;102176.78;4880244;29;46153;-72
2023/02/16 01:41:36;;;;;;;;;72.50;56.75;;;;;9.37;62.29;102188.31;4887599;29;45874;-72
2023/02/16 01:44:15;;;;;;;;;65.00;52.50;;;;;9.31;62.37;102180.31;4877331;29;45405;-71
2023/02/16 01:47:06;;;;;;;;;61.50;51.00;;;;;9.37;61.93;102187.38;4873075;29;45527;-72
2023/02/16 01:49:32;;;;;;;;;63.00;49.00;;;;;9.27;62.09;102166.13;4868548;29;45317;-72
2023/02/16 01:51:57;;;;;;;;;65.50;52.50;;;;;9.36;62.22;102177.63;4880685;29;45272;-72
2023/02/16 01:54:35;;;;;;;;;70.75;57.00;;;;;9.33;62.16;102162.53;4867700;29;45272;-72
2023/02/16 01:57:03;;;;;;;;;69.00;56.00;;;;;9.31;62.20;102159.00;4873963;29;45345;-72
2023/02/16 01:59:38;;;;;;;;;70.75;55.00;;;;;9.35;62.38;102165.19;4883918;29;45631;-72
2023/02/16 02:02:13;;;;;;;;;75.50;60.00;;;;;9.38;62.11;102165.19;4883522;29;45417;-71
2023/02/16 02:07:43;;;;;;;;;80.00;59.25;;;;;9.32;62.31;102167.88;4884640;29;45461;-72
2023/02/16 02:10:17;;;;;;;;;73.50;59.00;;;;;9.16;62.73;102135.97;4882335;29;45505;-72
2023/02/16 02:12:55;;;;;;;;;74.25;58.00;;;;;9.36;62.32;102157.19;4884770;29;45956;-72
2023/02/16 02:15:25;;;;;;;;;69.00;54.50;;;;;9.32;62.03;102149.22;4884725;29;45431;-72
2023/02/16 02:17:51;;;;;;;;;73.25;57.25;;;;;9.27;62.08;102134.16;4883920;29;45530;-72
2023/02/16 02:23:53;;;;;;;;;66.25;54.00;;;;;9.27;62.41;102112.84;4869541;29;45918;-72
2023/02/16 02:26:58;;;;;;;;;69.00;52.00;;;;;9.19;61.90;102098.66;4865783;29;45411;-72
2023/02/16 02:29:46;;;;;;;;;59.50;46.50;;;;;9.43;62.20;102136.72;4863981;29;45601;-72
2023/02/16 02:32:19;;;;;;;;;18.50;13.25;;;;;9.15;62.53;102088.03;4874491;29;45550;-72
2023/02/16 02:35:03;;;;;;;;;60.00;48.25;;;;;9.46;62.30;102131.38;4882863;29;46063;-72
2023/02/16 02:37:45;;;;;;;;;57.75;48.00;;;;;9.25;61.80;102101.31;4894888;29;45410;-72
2023/02/16 02:40:37;;;;;;;;;57.75;47.25;;;;;9.20;61.85;102095.09;4869038;29;45622;-72
2023/02/16 02:43:06;;;;;;;;;57.25;43.75;;;;;9.44;61.78;102134.06;4863623;29;48518;-72
2023/02/16 02:45:55;;;;;;;;;50.00;42.50;;;;;9.43;62.44;102137.59;4865707;29;45769;-72
2023/02/16 02:48:21;;;;;;;;;54.75;44.75;;;;;9.21;61.80;102098.66;4893299;29;45427;-72
2023/02/16 02:51:28;;;;;;;;;48.25;42.25;;;;;9.26;62.06;102107.50;4898626;29;45470;-72
2023/02/16 03:02:24;;;;;;;;;60.25;47.25;;;;;9.37;62.07;102128.75;4870469;29;45396;-72
2023/02/16 03:04:52;;;;;;;;;53.50;43.75;;;;;9.35;61.91;102138.53;4883595;29;45693;-72
2023/02/16 03:07:45;;;;;;;;;55.75;46.25;;;;;9.24;61.77;102111.97;4866579;29;45431;-72
2023/02/16 03:12:44;;;;;;;;;57.00;45.75;;;;;9.26;61.89;102116.38;4882142;29;45390;-72
2023/02/16 03:12:55;;;;;;;;;60.25;48.00;;;;;9.16;61.92;102106.66;4865018;29;45549;-72
2023/02/16 03:15:23;;;;;;;;;52.50;44.25;;;;;9.11;61.94;102096.94;4864938;29;45556;-72
2023/02/16 03:31:40;;;;;;;;;55.25;46.25;;;;;9.16;62.58;102122.66;4865038;29;45525;-72
2023/02/16 03:34:06;;;;;;;;;59.50;46.75;;;;;9.02;62.45;102096.09;4883769;29;45513;-72
2023/02/16 03:36:34;;;;;;;;;57.50;45.25;;;;;9.06;62.35;102103.16;4872248;29;47166;-72
2023/02/16 03:39:00;;;;;;;;;59.00;46.00;;;;;8.97;62.50;102088.97;4872439;29;46015;-72
2023/02/16 03:41:31;;;;;;;;;50.75;41.50;;;;;8.93;62.27;102076.59;4879223;29;45384;-72
2023/02/16 03:43:57;;;;;;;;;47.25;41.25;;;;;9.08;62.11;102105.81;4864299;29;45574;-72
2023/02/16 03:46:22;;;;;;;;;56.75;47.25;;;;;8.80;62.61;102068.63;4864234;29;47185;-72
2023/02/16 03:48:48;;;;;;;;;53.75;45.00;;;;;8.95;62.46;102091.66;4887155;29;45300;-72
2023/02/16 03:51:13;;;;;;;;;46.50;38.50;;;;;9.06;62.48;102111.13;4864670;29;45352;-72
2023/02/16 03:53:39;;;;;;;;;50.00;41.50;;;;;9.01;62.12;102107.63;4863418;29;45922;-72
2023/02/16 03:56:04;;;;;;;;;44.00;39.25;;;;;9.00;62.97;102111.16;4863888;29;46695;-72
2023/02/16 03:58:29;;;;;;;;;51.25;43.75;;;;;8.90;62.32;102098.78;4881868;29;45368;-72
2023/02/16 04:00:57;;;;;;;;;46.00;41.00;;;;;9.00;62.34;102120.94;4866595;29;45829;-72
2023/02/16 04:03:23;;;;;;;;;55.50;47.00;;;;;8.92;62.42;102104.09;4888043;29;45608;-72
2023/02/16 04:05:48;;;;;;;;;52.50;41.50;;;;;8.98;62.44;102122.72;4865645;29;45479;-72
2023/02/16 04:08:13;;;;;;;;;54.50;43.50;;;;;8.87;62.34;102110.34;4866902;29;45327;-72
2023/02/16 04:10:39;;;;;;;;;51.75;43.25;;;;;8.94;62.87;102126.28;4877364;29;45461;-72
2023/02/16 04:13:05;;;;;;;;;58.50;46.25;;;;;8.87;62.59;102106.75;4864271;29;45343;-72
2023/02/16 04:15:30;;;;;;;;;54.00;44.25;;;;;8.83;62.69;102103.22;4864294;29;45503;-72
2023/02/16 04:17:56;;;;;;;;;55.25;41.00;;;;;8.80;62.98;102103.25;4868631;29;45462;-72
2023/02/16 04:20:26;;;;;;;;;48.25;41.50;;;;;8.71;62.66;102085.53;4868014;29;45404;-72
2023/02/16 04:22:52;;;;;;;;;48.00;39.75;;;;;8.76;62.48;102093.50;4883197;29;45506;-71
2023/02/16 04:25:18;;;;;;;;;42.75;37.25;;;;;8.68;62.90;102082.00;4865205;29;47093;-72
2023/02/16 04:27:45;;;;;;;;;57.00;42.25;;;;;8.83;63.18;102107.69;4865435;29;45997;-72
2023/02/16 04:30:14;;;;;;;;;54.50;42.75;;;;;8.83;63.23;102121.88;4865572;29;45628;-71
2023/02/16 04:32:39;;;;;;;;;49.00;38.75;;;;;8.67;62.56;102089.09;4871452;29;45688;-71
2023/02/16 04:35:05;;;;;;;;;51.25;42.75;;;;;8.80;63.16;102110.34;4883744;29;47622;-71
2023/02/16 04:37:31;;;;;;;;;59.25;46.50;;;;;8.55;62.65;102083.78;4883034;29;45616;-71
2023/02/16 04:39:56;;;;;;;;;54.25;42.50;;;;;8.74;63.10;102111.28;4867783;29;45477;-71
2023/02/16 04:42:22;;;;;;;;;45.00;39.00;;;;;8.48;62.55;102074.06;4867190;29;45356;-72
2023/02/16 04:44:47;;;;;;;;;54.50;43.00;;;;;8.56;62.88;102090.03;4881309;29;46898;-72
2023/02/16 04:47:13;;;;;;;;;55.25;45.25;;;;;8.61;62.75;102104.19;4867558;29;45459;-72
2023/02/16 04:49:38;;;;;;;;;53.75;43.00;;;;;8.45;62.81;102076.72;4893904;29;45370;-72
2023/02/16 04:52:04;;;;;;;;;54.00;45.50;;;;;8.53;62.95;102090.91;4867178;29;45634;-72
2023/02/16 04:54:30;;;;;;;;;54.50;43.50;;;;;8.59;63.10;102103.34;4867039;29;46286;-71
2023/02/16 04:56:56;;;;;;;;;52.25;42.25;;;;;8.49;63.18;102089.16;4880916;29;45740;-71
2023/02/16 04:59:21;;;;;;;;;54.25;43.50;;;;;8.63;63.14;102110.41;4884166;29;45509;-71
2023/02/16 05:01:47;;;;;;;;;43.50;34.75;;;;;8.53;62.94;102089.13;4874418;29;45553;-72
2023/02/16 05:04:13;;;;;;;;;47.50;40.50;;;;;8.65;63.32;102117.50;4892961;29;47792;-72
2023/02/16 05:06:39;;;;;;;;;52.50;43.50;;;;;8.42;62.99;102087.34;4891418;29;45552;-72
2023/02/16 05:09:05;;;;;;;;;47.00;38.00;;;;;8.45;63.22;102090.94;4883438;29;45464;-72
2023/02/16 05:14:41;;;;;;;;;53.25;43.00;;;;;8.56;63.70;102106.88;4874381;29;45682;-71
2023/02/16 05:17:21;;;;;;;;;44.75;39.50;;;;;8.51;63.64;102096.22;4871150;29;45380;-72
2023/02/16 05:19:51;;;;;;;;;42.75;38.75;;;;;8.59;64.10;102116.63;4866688;29;45287;-71
2023/02/16 05:22:17;;;;;;;;;49.75;41.75;;;;;8.42;64.21;102077.59;4899223;29;45583;-71
2023/02/16 05:24:43;;;;;;;;;41.75;38.00;;;;;8.68;64.47;102119.25;4882098;29;47052;-71
2023/02/16 05:27:13;;;;;;;;;38.00;34.75;;;;;8.71;64.36;102125.47;4866405;29;45829;-72
2023/02/16 05:29:39;;;;;;;;;55.50;42.75;;;;;8.50;64.38;102081.16;4870909;29;45588;-72
2023/02/16 05:32:05;;;;;;;;;41.75;37.25;;;;;8.74;64.06;102119.25;4880906;29;45623;-71
2023/02/16 05:34:30;;;;;;;;;46.25;38.00;;;;;8.77;64.13;102116.59;4879473;29;47578;-72
2023/02/16 05:37:03;;;;;;;;;50.00;42.75;;;;;8.61;64.13;102082.91;4883869;29;45484;-71
2023/02/16 05:39:29;;;;;;;;;50.25;39.50;;;;;8.73;64.45;102106.81;4871668;29;45382;-71
2023/02/16 05:42:00;;;;;;;;;40.25;37.00;;;;;8.81;64.23;102122.78;4864935;29;45554;-71
2023/02/16 05:44:28;;;;;;;;;50.25;40.50;;;;;8.60;64.42;102090.00;4879062;29;47266;-71
2023/02/16 05:46:59;;;;;;;;;43.00;37.25;;;;;8.65;64.42;102089.97;4890497;29;45732;-72
2023/02/16 05:49:30;;;;;;;;;37.75;34.75;;;;;8.78;64.24;102109.47;4864814;29;45303;-72
2023/02/16 05:51:58;;;;;;;;;47.25;40.00;;;;;8.68;64.55;102098.84;4880771;29;45502;-72
2023/02/16 05:54:26;;;;;;;;;48.25;40.00;;;;;8.56;63.91;102084.69;4864716;29;47269;-71
2023/02/16 05:56:54;;;;;;;;;45.50;39.50;;;;;8.68;64.29;102095.31;4872923;29;45543;-71
2023/02/16 05:59:22;;;;;;;;;43.00;38.50;;;;;8.76;64.64;102112.13;4865447;29;45493;-71
2023/02/16 06:01:53;;;;;;;;;47.00;40.75;;;;;8.67;64.82;102090.84;4866339;29;45462;-71
2023/02/16 06:04:22;;;;;;;;;42.00;38.00;;;;;8.75;64.38;102105.03;4864382;29;47444;-71
2023/02/16 06:07:00;;;;;;;;;47.75;40.75;;;;;8.61;65.10;102082.91;4881441;29;45329;-71
2023/02/16 06:09:30;;;;;;;;;43.75;37.75;;;;;8.59;64.71;102071.38;4876667;29;45347;-71
2023/02/16 06:12:06;;;;;;;;;46.00;38.00;;;;;8.66;64.67;102089.09;4884435;29;45810;-71
2023/02/16 06:14:37;;;;;;;;;49.50;39.75;;;;;8.66;64.99;102083.78;4889768;29;47797;-71
2023/02/16 06:17:05;;;;;;;;;45.50;38.75;;;;;8.74;64.41;102092.63;4866673;29;45441;-72
2023/02/16 06:19:41;;;;;;;;;45.75;39.25;;;;;8.76;64.57;102090.84;4864567;29;45527;-71
2023/02/16 06:22:12;;;;;;;;;48.50;36.00;;;;;8.86;64.66;102107.69;4897382;29;45473;-71
2023/02/16 06:24:45;;;;;;;;;36.50;31.75;;;;;8.98;64.82;102136.03;4886160;29;47820;-71
2023/02/16 06:27:15;;;;;;;;;49.50;40.75;;;;;8.74;64.39;102097.97;4874981;29;45341;-72
2023/02/16 06:29:46;;;;;;;;;44.75;38.25;;;;;8.64;64.70;102080.25;4868949;29;45407;-71
2023/02/16 06:32:17;;;;;;;;;36.25;35.75;;;;;8.60;64.59;102076.69;4879919;29;45540;-71
2023/02/16 06:35:08;;;;;;;;;47.50;37.50;;;;;8.93;64.58;102132.50;4865206;29;48139;-72
2023/02/16 06:37:36;;;;;;;;;39.75;37.75;;;;;8.87;64.55;102120.09;4884250;29;45392;-71
2023/02/16 06:40:08;;;;;;;;;44.25;38.00;;;;;8.95;65.16;102142.25;4865323;29;45455;-71
2023/02/16 06:42:34;;;;;;;;;40.50;35.75;;;;;8.85;64.91;102128.09;4865539;29;45483;-72
2023/02/16 06:45:00;;;;;;;;;40.00;38.00;;;;;8.75;64.85;102105.03;4864821;29;45690;-72
2023/02/16 06:47:36;;;;;;;;;43.75;38.25;;;;;8.97;64.90;102128.94;4871176;29;45336;-72
2023/02/16 06:50:08;;;;;;;;;45.50;34.50;;;;;8.79;65.38;102111.25;4879628;29;45466;-71
2023/02/16 06:52:44;;;;;;;;;42.25;36.00;;;;;8.79;65.45;102112.13;4889329;29;45367;-72
2023/02/16 06:58:01;;;;;;;;;43.75;35.25;;;;;8.99;64.55;102132.50;4889128;28;45355;-72
2023/02/16 07:00:35;;;;;;;;;45.50;39.00;;;;;8.90;65.13;102118.31;4882566;29;45384;-72
2023/02/16 07:03:06;;;;;;;;;43.25;38.00;;;;;8.94;65.13;102127.19;4882550;29;45699;-72
2023/02/16 07:05:51;;;;;;;;;44.00;35.50;;;;;8.96;64.73;102128.06;4877355;29;45708;-72
2023/02/16 07:08:19;;;;;;;;;38.50;35.25;;;;;9.10;65.06;102154.63;4882553;29;45327;-72
2023/02/16 07:10:46;;;;;;;;;38.25;35.75;;;;;8.93;64.67;102127.19;4872496;29;45355;-72
2023/02/16 07:13:14;;;;;;;;;43.25;37.25;;;;;8.85;65.37;102125.44;4870965;29;45414;-72
2023/02/16 07:15:39;;;;;;;;;38.75;36.00;;;;;9.07;65.00;102152.88;4883613;29;45516;-68
2023/02/16 07:18:16;;;;;;;;;40.50;35.00;;;;;9.02;64.68;102151.09;4881143;29;45650;-71
2023/02/16 07:20:41;;;;;;;;;42.50;35.25;;;;;9.18;65.08;102181.25;4875183;29;45497;-72
2023/02/16 07:23:06;;;;;;;;;43.00;34.50;;;;;9.04;65.15;102166.22;4872482;29;45535;-71
2023/02/16 07:25:32;;;;;;;;;35.25;33.50;;;;;9.24;65.29;102202.56;4879928;29;48445;-71
2023/02/16 07:48:58;;;;;;;;;52.00;42.50;;;;;9.22;65.57;102172.34;5774524;23;46103;-74
2023/02/16 07:51:29;;;;;;;;;45.75;38.00;;;;;9.27;65.59;102178.53;4880928;29;46019;-75
2023/02/16 07:53:56;;;;;;;;;42.50;37.00;;;;;9.50;65.33;102207.75;4878074;29;45900;-74
2023/02/16 07:56:27;;;;;;;;;48.00;38.75;;;;;9.18;65.74;102154.63;4881646;29;45464;-75
2023/02/16 07:58:54;;;;;;;;;40.25;35.00;;;;;9.24;65.20;102158.13;4880771;29;47121;-77
2023/02/16 08:01:21;;;;;;;;;45.50;39.75;;;;;9.32;65.57;102171.44;4880855;29;47325;-76
2023/02/16 08:03:47;;;;;;;;;41.50;36.25;;;;;9.04;65.54;102136.03;4880676;29;45736;-76
2023/02/16 08:06:13;;;;;;;;;41.25;37.75;;;;;9.19;65.89;102167.94;4897917;28;45459;-76
2023/02/16 08:08:39;;;;;;;;;45.75;38.75;;;;;9.03;65.92;102145.78;4880896;29;45392;-77
2023/02/16 08:11:18;;;;;;;;;44.75;38.50;;;;;9.17;66.41;102171.47;4896209;29;47834;-74
2023/02/16 08:13:43;;;;;;;;;52.50;40.50;;;;;9.04;66.55;102152.00;4883766;28;45875;-74
2023/02/16 08:16:11;;;;;;;;;42.00;36.00;;;;;9.43;66.54;102217.56;4870705;29;45497;-74
2023/02/16 08:18:38;;;;;;;;;39.75;35.75;;;;;9.44;66.87;102224.69;4871640;29;45906;-74
2023/02/16 08:21:12;;;;;;;;;42.00;37.25;;;;;9.08;67.04;102156.41;4867865;29;46140;-73
2023/02/16 08:23:57;;;;;;;;;48.25;39.00;;;;;9.52;66.60;102227.34;4868292;29;46970;-73
2023/02/16 08:26:48;;;;;;;;;45.75;37.00;;;;;9.27;67.11;102181.19;4876494;29;46388;-73
2023/02/16 08:29:19;;;;;;;;;47.75;40.25;;;;;9.19;66.96;102153.75;4891453;29;45672;-73
2023/02/16 08:31:47;;;;;;;;;45.00;38.75;;;;;9.40;66.74;102185.59;4873666;29;46558;-73
2023/02/16 08:34:27;;;;;;;;;;;;;;;;;;;;;
2023/02/16 08:37:00;;;;;;;;;44.75;37.75;;;;;9.46;66.75;102187.38;4871813;29;67808;-72
2023/02/16 08:39:41;;;;;;;;;;;;;;;;;;;;;
2023/02/16 08:42:12;;;;;;;;;31.75;19.00;;;;;9.59;66.89;102185.53;4866971;29;75028;-70
2023/02/16 08:44:49;;;;;;;;;47.00;40.75;;;;;9.64;67.30;102192.59;4869272;29;46035;-73
2023/02/16 08:47:19;;;;;;;;;46.25;37.00;;;;;9.56;67.14;102173.09;4866244;29;45401;-73
2023/02/16 08:49:46;;;;;;;;;51.75;40.00;;;;;9.46;67.09;102150.03;4882350;29;46112;-73
2023/02/16 08:52:15;;;;;;;;;53.25;40.25;;;;;9.27;67.61;102112.84;4872534;29;47251;-73
2023/02/16 08:54:43;;;;;;;;;41.75;36.25;;;;;9.63;67.47;102177.50;4870224;29;46464;-73
2023/02/16 08:57:10;;;;;;;;;42.00;38.00;;;;;9.54;67.72;102172.22;4874106;29;46181;-73
2023/02/16 08:59:37;;;;;;;;;45.25;37.75;;;;;9.49;67.47;102162.44;4868759;29;45614;-73
2023/02/16 09:02:05;;;;;;;;;50.25;41.00;;;;;9.47;67.47;102149.13;4857987;29;46080;-73
2023/02/16 09:04:48;;;;;;;;;;;;;;;;;;;;;
2023/02/16 09:07:20;;;;;;;;;48.50;39.25;;;;;9.40;67.41;102126.09;4868152;29;69200;-73
2023/02/16 09:09:57;;;;;;;;;;;;;;;;;;;;;
2023/02/16 09:12:29;;;;;;;;;46.50;39.25;;;;;9.59;68.03;102157.09;4876649;29;74447;-73
2023/02/16 09:15:03;;;;;;;;;44.00;38.25;;;;;9.66;67.75;102167.72;4874111;29;45846;-72
2023/02/16 09:17:31;;;;;;;;;54.00;44.75;;;;;9.83;67.86;102205.81;4876869;29;45544;-72
2023/02/16 09:20:27;;;;;;;;;42.25;37.75;;;;;9.64;67.57;102191.72;4869698;29;45779;-72
2023/02/16 09:22:55;;;;;;;;;42.50;35.75;;;;;9.56;67.37;102182.88;4859659;29;48290;-72
2023/02/16 09:25:28;;;;;;;;;51.00;41.25;;;;;9.60;67.58;102184.63;4871103;29;45263;-72
2023/02/16 09:28:06;;;;;;;;;;;;;;;;;;;;;
2023/02/16 09:30:34;;;;;;;;;52.50;42.25;;;;;9.74;67.43;102200.53;4871550;29;71068;-73
2023/02/16 09:33:07;;;;;;;;;47.75;37.25;;;;;9.75;67.73;102195.19;4867630;29;48303;-72
2023/02/16 09:35:40;;;;;;;;;50.50;41.00;;;;;9.57;67.24;102166.88;4875933;29;45399;-72
2023/02/16 09:38:06;;;;;;;;;49.25;39.50;;;;;9.64;67.39;102163.28;4873473;29;45843;-72
2023/02/16 09:40:50;;;;;;;;;;;;;;;;;;;;;
2023/02/16 09:43:59;;;;;;;;;45.00;38.25;;;;;10.17;67.65;102237.63;4876258;29;76754;-72
2023/02/16 09:46:33;;;;;;;;;51.50;39.75;;;;;9.87;68.07;102196.91;4877366;29;45755;-72
2023/02/16 09:49:16;;;;;;;;;;;;;;;;;;;;;
2023/02/16 09:51:59;;;;;;;;;;;;;;;;;;;;;
2023/02/16 09:54:53;;;;;;;;;47.25;38.25;;;;;9.86;67.76;102188.94;4875736;29;75108;-73
2023/02/16 09:57:54;;;;;;;;;47.25;40.25;;;;;10.18;68.17;102234.06;4879687;29;46029;-72
2023/02/16 10:00:31;;;;;;;;;47.00;39.00;;;;;9.87;68.44;102190.69;4878254;29;45612;-73
2023/02/16 10:02:59;;;;;;;;;47.50;39.50;;;;;10.22;68.38;102237.59;4887103;29;45380;-72
2023/02/16 10:05:59;;;;;;;;;47.25;40.25;;;;;10.27;68.68;102238.44;4881658;29;46810;-73
2023/02/16 10:08:38;;;;;;;;;47.75;40.00;;;;;10.12;68.44;102210.09;4874090;29;45811;-73
2023/02/16 10:14:09;;;;;;;;;43.75;36.75;;;;;10.09;68.26;102202.09;4877073;29;45812;-72
2023/02/16 10:16:46;;;;;;;;;46.25;38.00;;;;;10.23;69.33;102207.34;4872434;29;45570;-72
2023/02/16 10:19:48;;;;;;;;;50.25;41.25;;;;;10.17;68.77;102195.84;4875073;29;45997;-72
2023/02/16 10:22:20;;;;;;;;;45.00;38.75;;;;;10.28;69.12;102209.06;4872197;29;45436;-70
2023/02/16 10:25:47;;;;;;;;;44.00;37.00;;;;;10.56;69.17;102256.97;4889587;29;45516;-78
2023/02/16 10:28:45;;;;;;;;;;;;;;;;;;;;;
2023/02/16 10:31:34;;;;;;;;;36.25;32.75;;;;;10.62;69.03;102251.53;4869199;29;72810;-72
2023/02/16 10:34:31;;;;;;;;;44.00;36.75;;;;;10.65;69.12;102246.19;4875570;29;45708;-72
2023/02/16 10:37:08;;;;;;;;;44.75;38.00;;;;;10.57;69.33;102230.25;4870216;29;45451;-72
2023/02/16 10:39:51;;;;;;;;;49.00;40.50;;;;;10.73;69.48;102243.47;4865456;29;47011;-72
2023/02/16 10:42:26;;;;;;;;;43.25;35.50;;;;;10.78;69.54;102238.09;4871251;29;46900;-72
2023/02/16 10:45:41;;;;;;;;;48.00;39.75;;;;;10.77;69.28;102233.63;4863631;29;45944;-72
2023/02/16 10:48:08;;;;;;;;;43.75;37.00;;;;;10.64;69.38;102217.72;4876838;29;45646;-72
2023/02/16 10:50:57;;;;;;;;;39.75;36.25;;;;;10.78;69.12;102232.75;4873639;29;47077;-72
2023/02/16 10:53:47;;;;;;;;;49.00;39.50;;;;;10.85;69.40;102239.78;4873564;29;45686;-72
2023/02/16 10:56:51;;;;;;;;;43.75;36.00;;;;;10.71;69.02;102194.53;4872815;29;45521;-72
2023/02/16 10:59:26;;;;;;;;;41.50;36.00;;;;;10.74;68.79;102187.34;4889486;28;45520;-71
2023/02/16 11:01:57;;;;;;;;;50.00;38.50;;;;;10.82;69.38;102205.97;4888001;29;48022;-72
2023/02/16 11:04:36;;;;;;;;;41.50;36.75;;;;;10.81;69.56;102209.56;4875287;29;45415;-72
2023/02/16 11:07:21;;;;;;;;;43.75;36.25;;;;;10.88;69.36;102216.59;4877211;29;45498;-72
2023/02/16 11:09:56;;;;;;;;;41.00;35.50;;;;;10.76;69.40;102184.66;4866202;29;46001;-72
2023/02/16 11:12:24;;;;;;;;;42.25;37.25;;;;;11.00;69.42;102212.03;4870144;29;47622;-72
2023/02/16 11:15:01;;;;;;;;;41.50;37.00;;;;;11.06;69.81;102218.19;4866116;29;45916;-72
2023/02/16 11:17:34;;;;;;;;;44.25;36.25;;;;;10.90;69.36;102190.75;4864279;29;45428;-72
2023/02/16 11:20:04;;;;;;;;;42.50;37.00;;;;;10.96;69.84;102192.47;4874156;29;45774;-72
2023/02/16 11:22:50;;;;;;;;;;;;;;;;;;;;;
2023/02/16 11:25:33;;;;;;;;;40.75;36.00;;;;;11.10;70.22;102200.34;4872203;29;73665;-72
2023/02/16 11:28:14;;;;;;;;;43.50;37.50;;;;;11.12;69.92;102196.72;4885436;29;45693;-70
2023/02/16 11:30:44;;;;;;;;;41.00;36.75;;;;;11.15;69.72;102192.28;4867226;29;45552;-71
2023/02/16 11:33:30;;;;;;;;;42.00;36.00;;;;;11.21;69.83;102189.50;4871709;29;45672;-71
2023/02/16 11:35:58;;;;;;;;;36.75;33.25;;;;;11.52;69.70;102232.81;4869407;29;45745;-71
2023/02/16 11:38:56;;;;;;;;;42.50;36.50;;;;;11.42;69.58;102199.94;4863140;29;45526;-70
2023/02/16 11:41:27;;;;;;;;;41.25;36.25;;;;;11.37;69.94;102182.19;4872311;29;45437;-71
2023/02/16 11:44:06;;;;;;;;;;;;;;;;;;;;;
2023/02/16 11:46:39;;;;;;;;;39.00;33.75;;;;;11.66;70.04;102209.44;4861217;29;71297;-71
2023/02/16 11:49:26;;;;;;;;;33.25;32.50;;;;;11.73;70.26;102209.34;4866252;29;45512;-71
2023/02/16 11:51:56;;;;;;;;;38.25;33.75;;;;;11.47;70.11;102167.81;4891677;29;45369;-71
2023/02/16 11:54:22;;;;;;;;;38.75;33.25;;;;;11.67;70.20;102194.28;4873872;29;46215;-71
2023/02/16 11:57:32;;;;;;;;;37.75;34.00;;;;;11.55;70.39;102152.53;4867055;29;46092;-71
2023/02/16 12:00:20;;;;;;;;;34.00;32.75;;;;;11.79;70.12;102183.38;4871063;29;45611;-71
2023/02/16 12:02:53;;;;;;;;;32.75;30.50;;;;;11.99;70.42;102199.19;4856549;29;46470;-71
2023/02/16 12:05:25;;;;;;;;;37.25;30.50;;;;;11.97;70.22;102176.91;4856658;29;46293;-71
2023/02/16 12:08:38;;;;;;;;;;;;;;;;;;;;;
2023/02/16 12:11:28;;;;;;;;;;;;;;;;;;;;;
2023/02/16 12:14:26;;;;;;;;;;;;;;;;;;;;;
2023/02/16 12:21:19;;;;;;;;;;;;;;;;;;;;;
2023/02/16 12:24:18;;;;;;;;;;;;;;;;;;;;;
2023/02/16 12:27:13;;;;;;;;;;;;;;;;;;;;;
2023/02/16 12:33:53;;;;;;;;;;;;;;;;;;;;;
2023/02/16 12:37:01;;;;;;;;;;;;;;;;;;;;;
2023/02/16 12:43:31;;;;;;;;;;;;;;;;;;;;;
2023/02/16 12:50:07;;;;;;;;;;;;;;;;;;;;;
2023/02/16 12:52:53;;;;;;;;;17.75;15.50;;;;;12.93;68.97;102121.66;4876278;29;74278;-71
2023/02/16 12:55:30;;;;;;;;;19.50;15.50;;;;;13.00;67.76;102128.69;4880407;29;47054;-70
2023/02/16 12:58:15;;;;;;;;;16.75;15.00;;;;;13.24;67.19;102150.53;4882890;29;45443;-71
2023/02/16 13:01:07;;;;;;;;;;;;;;;;;;;;;
2023/02/16 13:04:14;;;;;;;;;16.75;14.25;;;;;13.27;66.01;102135.25;4871758;29;74071;-70
2023/02/16 13:07:15;;;;;;;;;;;;;;;;;;;;;
2023/02/16 13:09:58;;;;;;;;;;;;;;;;;;;;;
2023/02/16 13:13:13;;;;;;;;;;;;;;;;;;;;;
2023/02/16 13:16:15;;;;;;;;;;;;;;;;;;;;;
2023/02/16 13:23:03;;;;;;;;;;;;;;;;;;;;;
2023/02/16 13:26:28;;;;;;;;;10.75;8.25;;;;;13.62;61.51;102127.41;4875458;29;45439;-71
2023/02/16 13:29:44;;;;;;;;;9.00;8.25;;;;;13.70;61.05;102128.09;4885542;29;45762;-71
2023/02/16 13:32:39;;;;;;;;;10.50;8.75;;;;;13.73;60.77;102119.94;4877113;29;47410;-71
2023/02/16 13:42:41;;;;;;;;;;;;;;;;;;;;;
2023/02/16 13:45:52;;;;;;;;;;;;;;;;;;;;;
2023/02/16 13:48:49;;;;;;;;;8.75;8.00;;;;;13.69;59.43;102086.06;4805412;29;72942;-70
2023/02/16 13:51:47;;;;;;;;;8.00;7.50;;;;;13.71;59.24;102082.44;4798577;29;45561;-70
2023/02/16 13:55:03;;;;;;;;;;;;;;;;;;;;;
2023/02/16 14:08:26;;;;;;;;;;;;;;;;;;;;;
2023/02/16 14:11:40;;;;;;;;;8.75;8.75;;;;;14.21;57.65;102067.78;4869148;29;75438;-71
2023/02/16 14:14:54;;;;;;;;;;;;;;;;;;;;;
2023/02/16 14:17:22;;;;;;;;;9.50;8.75;;;;;14.30;57.99;102067.53;4877183;29;68820;-72
2023/02/16 14:20:03;;;;;;;;;12.50;10.25;;;;;14.31;57.81;102066.59;4876997;29;45926;-72
2023/02/16 14:23:15;;;;;;;;;;;;;;;;;;;;;
2023/02/16 14:25:52;;;;;;;;;11.25;7.25;;;;;14.35;57.95;102064.69;4866460;29;71262;-71